Hudson Oaks, Texas
Current Conditions -  °F | °C
As of 6:55 PM on Tuesday 21 Oct 2014 (Local Time) from KGDJ Reporting Station
Clear Clear  
Wind Chill: 76°   Ceiling: Unl
Heat Index: 78°   Visibility: 10mi
Dew Point: 53°   Wind: 3mph
Humidity: 44%   Direction: 140°SE
Pressure: 30.03"   Gusts: NA
Location:  32.6854°N, 97.7998°W
Report Text: KGDJ 212355Z AUTO 14003KT 10SM CLR 25/12 A3003 RMK AO2 T02450115 10286 20245
Loading
Personal Weather Stations






























Interactive Weather Map
Tropical Storm Tracking
New forecast layout! Learn more

10-Day Weather Forecast

Advertisements
Track Severe Weather on mobile